sensor_id;sensor_type;location;lat;lon;timestamp;pressure;altitude;pressure_sealevel;temperature;humidity
70027;BME280;57506;50.092;15.804;2023-03-15T00:00:46;98310.59;;;2.10;100.00
70027;BME280;57506;50.092;15.804;2023-03-15T00:03:12;98316.22;;;2.07;100.00
70027;BME280;57506;50.092;15.804;2023-03-15T00:05:48;98311.72;;;1.99;100.00
70027;BME280;57506;50.092;15.804;2023-03-15T00:08:16;98316.03;;;2.00;100.00
70027;BME280;57506;50.092;15.804;2023-03-15T00:10:43;98316.03;;;2.00;100.00
70027;BME280;57506;50.092;15.804;2023-03-15T00:13:09;98335.69;;;2.16;100.00
70027;BME280;57506;50.092;15.804;2023-03-15T00:15:36;98332.69;;;2.10;100.00
70027;BME280;57506;50.092;15.804;2023-03-15T00:18:08;98339.47;;;2.05;100.00
70027;BME280;57506;50.092;15.804;2023-03-15T00:20:36;98350.13;;;2.13;100.00
70027;BME280;57506;50.092;15.804;2023-03-15T00:23:01;98357.25;;;2.04;100.00
70027;BME280;57506;50.092;15.804;2023-03-15T00:25:27;98358.06;;;2.05;100.00
70027;BME280;57506;50.092;15.804;2023-03-15T00:27:52;98346.97;;;2.09;100.00
70027;BME280;57506;50.092;15.804;2023-03-15T00:30:18;98352.78;;;2.13;100.00
70027;BME280;57506;50.092;15.804;2023-03-15T00:32:43;98367.88;;;2.13;100.00
70027;BME280;57506;50.092;15.804;2023-03-15T00:35:13;98366.06;;;2.05;100.00
70027;BME280;57506;50.092;15.804;2023-03-15T00:37:38;98370.00;;;2.01;100.00
70027;BME280;57506;50.092;15.804;2023-03-15T00:40:05;98367.81;;;1.96;100.00
70027;BME280;57506;50.092;15.804;2023-03-15T00:42:31;98372.66;;;1.93;100.00
70027;BME280;57506;50.092;15.804;2023-03-15T00:44:58;98371.97;;;1.91;100.00
70027;BME280;57506;50.092;15.804;2023-03-15T00:47:24;98379.44;;;1.95;100.00
70027;BME280;57506;50.092;15.804;2023-03-15T00:49:49;98369.31;;;1.91;100.00
70027;BME280;57506;50.092;15.804;2023-03-15T00:52:16;98385.78;;;1.94;100.00
70027;BME280;57506;50.092;15.804;2023-03-15T00:54:42;98388.59;;;1.93;100.00
70027;BME280;57506;50.092;15.804;2023-03-15T00:57:08;98381.91;;;1.89;100.00
70027;BME280;57506;50.092;15.804;2023-03-15T00:59:34;98386.75;;;1.93;100.00
70027;BME280;57506;50.092;15.804;2023-03-15T01:02:01;98395.03;;;1.90;100.00
70027;BME280;57506;50.092;15.804;2023-03-15T01:04:26;98399.00;;;1.86;100.00
70027;BME280;57506;50.092;15.804;2023-03-15T01:06:52;98405.31;;;1.85;100.00
70027;BME280;57506;50.092;15.804;2023-03-15T01:09:17;98409.78;;;1.85;100.00
70027;BME280;57506;50.092;15.804;2023-03-15T01:11:43;98402.47;;;1.79;100.00
70027;BME280;57506;50.092;15.804;2023-03-15T01:14:08;98395.94;;;1.73;100.00
70027;BME280;57506;50.092;15.804;2023-03-15T01:16:34;98396.78;;;1.73;100.00
70027;BME280;57506;50.092;15.804;2023-03-15T01:19:00;98390.47;;;1.74;100.00
70027;BME280;57506;50.092;15.804;2023-03-15T01:21:26;98398.97;;;1.78;100.00
70027;BME280;57506;50.092;15.804;2023-03-15T01:23:52;98398.53;;;1.91;100.00
70027;BME280;57506;50.092;15.804;2023-03-15T01:26:18;98398.00;;;1.87;100.00
70027;BME280;57506;50.092;15.804;2023-03-15T01:28:44;98405.28;;;1.77;100.00
70027;BME280;57506;50.092;15.804;2023-03-15T01:31:18;98420.22;;;1.78;100.00
70027;BME280;57506;50.092;15.804;2023-03-15T01:33:44;98424.53;;;1.79;100.00
70027;BME280;57506;50.092;15.804;2023-03-15T01:36:10;98431.84;;;1.77;100.00
70027;BME280;57506;50.092;15.804;2023-03-15T01:38:36;98434.50;;;1.77;100.00
70027;BME280;57506;50.092;15.804;2023-03-15T01:41:02;98433.97;;;1.73;100.00
70027;BME280;57506;50.092;15.804;2023-03-15T01:43:29;98434.13;;;1.72;100.00
70027;BME280;57506;50.092;15.804;2023-03-15T01:48:40;98451.16;;;1.61;100.00
70027;BME280;57506;50.092;15.804;2023-03-15T01:56:38;98461.81;;;1.44;100.00
70027;BME280;57506;50.092;15.804;2023-03-15T01:59:08;98464.97;;;1.47;100.00
70027;BME280;57506;50.092;15.804;2023-03-15T02:01:36;98470.81;;;1.51;100.00
70027;BME280;57506;50.092;15.804;2023-03-15T02:04:07;98458.03;;;1.46;100.00
70027;BME280;57506;50.092;15.804;2023-03-15T02:06:36;98465.44;;;1.43;100.00
70027;BME280;57506;50.092;15.804;2023-03-15T02:09:04;98473.56;;;1.41;100.00
70027;BME280;57506;50.092;15.804;2023-03-15T02:11:31;98474.03;;;1.36;100.00
70027;BME280;57506;50.092;15.804;2023-03-15T02:13:58;98481.25;;;1.26;100.00
70027;BME280;57506;50.092;15.804;2023-03-15T02:16:27;98492.69;;;1.27;100.00
70027;BME280;57506;50.092;15.804;2023-03-15T02:18:53;98480.31;;;1.18;100.00
70027;BME280;57506;50.092;15.804;2023-03-15T02:24:01;98484.19;;;1.23;100.00
70027;BME280;57506;50.092;15.804;2023-03-15T02:29:04;98480.03;;;1.21;100.00
70027;BME280;57506;50.092;15.804;2023-03-15T02:31:29;98486.00;;;1.23;100.00
70027;BME280;57506;50.092;15.804;2023-03-15T02:34:04;98481.53;;;1.23;100.00
70027;BME280;57506;50.092;15.804;2023-03-15T02:36:31;98473.19;;;1.18;100.00
70027;BME280;57506;50.092;15.804;2023-03-15T02:38:57;98477.47;;;1.11;100.00
70027;BME280;57506;50.092;15.804;2023-03-15T02:41:34;98490.72;;;1.11;100.00
70027;BME280;57506;50.092;15.804;2023-03-15T02:44:48;98492.84;;;1.08;100.00
70027;BME280;57506;50.092;15.804;2023-03-15T02:46:51;98492.09;;;0.97;100.00
70027;BME280;57506;50.092;15.804;2023-03-15T02:49:20;98491.41;;;0.95;100.00
70027;BME280;57506;50.092;15.804;2023-03-15T02:51:47;98488.34;;;0.90;100.00
70027;BME280;57506;50.092;15.804;2023-03-15T02:54:13;98492.00;;;0.89;100.00
70027;BME280;57506;50.092;15.804;2023-03-15T02:56:38;98481.59;;;0.78;100.00
70027;BME280;57506;50.092;15.804;2023-03-15T02:59:05;98508.06;;;0.88;100.00
70027;BME280;57506;50.092;15.804;2023-03-15T03:01:30;98512.22;;;0.90;100.00
70027;BME280;57506;50.092;15.804;2023-03-15T03:03:56;98512.97;;;0.83;100.00
70027;BME280;57506;50.092;15.804;2023-03-15T03:06:21;98530.41;;;0.85;100.00
70027;BME280;57506;50.092;15.804;2023-03-15T03:08:47;98528.03;;;0.82;100.00
70027;BME280;57506;50.092;15.804;2023-03-15T03:11:14;98531.22;;;0.86;100.00
70027;BME280;57506;50.092;15.804;2023-03-15T03:13:40;98525.09;;;0.85;100.00
70027;BME280;57506;50.092;15.804;2023-03-15T03:16:06;98528.22;;;0.81;100.00
70027;BME280;57506;50.092;15.804;2023-03-15T03:18:32;98517.06;;;0.77;100.00
70027;BME280;57506;50.092;15.804;2023-03-15T03:21:01;98519.03;;;0.75;100.00
70027;BME280;57506;50.092;15.804;2023-03-15T03:23:28;98530.69;;;0.82;100.00
70027;BME280;57506;50.092;15.804;2023-03-15T03:25:55;98527.38;;;0.80;100.00
70027;BME280;57506;50.092;15.804;2023-03-15T03:28:23;98528.78;;;0.75;100.00
70027;BME280;57506;50.092;15.804;2023-03-15T03:30:49;98529.22;;;0.70;100.00
70027;BME280;57506;50.092;15.804;2023-03-15T03:33:15;98513.94;;;0.64;100.00
70027;BME280;57506;50.092;15.804;2023-03-15T03:35:41;98540.25;;;0.75;100.00
70027;BME280;57506;50.092;15.804;2023-03-15T03:38:08;98540.13;;;0.67;100.00
70027;BME280;57506;50.092;15.804;2023-03-15T03:40:33;98537.47;;;0.67;100.00
70027;BME280;57506;50.092;15.804;2023-03-15T03:42:59;98551.13;;;0.72;100.00
70027;BME280;57506;50.092;15.804;2023-03-15T03:45:24;98560.47;;;0.76;100.00
70027;BME280;57506;50.092;15.804;2023-03-15T03:47:50;98566.97;;;0.82;100.00
70027;BME280;57506;50.092;15.804;2023-03-15T03:50:16;98580.50;;;0.88;100.00
70027;BME280;57506;50.092;15.804;2023-03-15T03:52:42;98588.72;;;0.95;100.00
70027;BME280;57506;50.092;15.804;2023-03-15T03:55:09;98596.81;;;0.93;100.00
70027;BME280;57506;50.092;15.804;2023-03-15T03:57:38;98598.78;;;0.91;100.00
70027;BME280;57506;50.092;15.804;2023-03-15T04:00:04;98598.50;;;0.94;100.00
70027;BME280;57506;50.092;15.804;2023-03-15T04:02:30;98603.19;;;1.00;100.00
70027;BME280;57506;50.092;15.804;2023-03-15T04:04:55;98610.16;;;1.01;100.00
70027;BME280;57506;50.092;15.804;2023-03-15T04:07:21;98617.44;;;0.99;100.00
70027;BME280;57506;50.092;15.804;2023-03-15T04:09:46;98609.25;;;0.93;100.00
70027;BME280;57506;50.092;15.804;2023-03-15T04:12:12;98614.00;;;0.89;100.00
70027;BME280;57506;50.092;15.804;2023-03-15T04:14:37;98617.75;;;0.96;100.00
70027;BME280;57506;50.092;15.804;2023-03-15T04:17:03;98616.91;;;0.96;100.00
70027;BME280;57506;50.092;15.804;2023-03-15T04:19:29;98612.47;;;0.87;100.00
70027;BME280;57506;50.092;15.804;2023-03-15T04:21:55;98612.47;;;0.87;100.00
70027;BME280;57506;50.092;15.804;2023-03-15T04:24:20;98618.91;;;0.84;100.00
70027;BME280;57506;50.092;15.804;2023-03-15T04:26:46;98617.63;;;0.88;100.00
70027;BME280;57506;50.092;15.804;2023-03-15T04:29:12;98613.72;;;0.92;100.00
70027;BME280;57506;50.092;15.804;2023-03-15T04:31:39;98625.03;;;0.94;100.00
70027;BME280;57506;50.092;15.804;2023-03-15T04:34:07;98623.63;;;0.90;100.00
70027;BME280;57506;50.092;15.804;2023-03-15T04:36:33;98622.38;;;0.94;100.00
70027;BME280;57506;50.092;15.804;2023-03-15T04:38:59;98626.69;;;0.95;100.00
70027;BME280;57506;50.092;15.804;2023-03-15T04:41:32;98634.66;;;0.95;100.00
70027;BME280;57506;50.092;15.804;2023-03-15T04:44:04;98627.28;;;0.89;100.00
70027;BME280;57506;50.092;15.804;2023-03-15T04:46:30;98634.53;;;0.87;100.00
70027;BME280;57506;50.092;15.804;2023-03-15T04:48:56;98634.94;;;0.92;100.00
70027;BME280;57506;50.092;15.804;2023-03-15T04:51:22;98634.25;;;0.90;100.00
70027;BME280;57506;50.092;15.804;2023-03-15T04:53:47;98642.22;;;0.90;100.00
70027;BME280;57506;50.092;15.804;2023-03-15T04:56:13;98634.13;;;0.82;100.00
70027;BME280;57506;50.092;15.804;2023-03-15T04:58:39;98636.50;;;0.85;100.00
70027;BME280;57506;50.092;15.804;2023-03-15T05:01:04;98627.84;;;0.83;100.00
70027;BME280;57506;50.092;15.804;2023-03-15T05:03:30;98646.25;;;0.94;100.00
70027;BME280;57506;50.092;15.804;2023-03-15T05:05:55;98650.16;;;0.90;100.00
70027;BME280;57506;50.092;15.804;2023-03-15T05:08:21;98640.94;;;0.94;100.00
70027;BME280;57506;50.092;15.804;2023-03-15T05:10:46;98649.75;;;0.95;100.00
70027;BME280;57506;50.092;15.804;2023-03-15T05:13:12;98646.81;;;0.88;100.00
70027;BME280;57506;50.092;15.804;2023-03-15T05:15:38;98656.31;;;0.91;100.00
70027;BME280;57506;50.092;15.804;2023-03-15T05:18:03;98662.72;;;0.88;100.00
70027;BME280;57506;50.092;15.804;2023-03-15T05:20:29;98665.53;;;0.87;100.00
70027;BME280;57506;50.092;15.804;2023-03-15T05:22:55;98671.13;;;0.84;100.00
70027;BME280;57506;50.092;15.804;2023-03-15T05:25:20;98685.06;;;0.86;100.00
70027;BME280;57506;50.092;15.804;2023-03-15T05:27:46;98668.09;;;0.79;100.00
70027;BME280;57506;50.092;15.804;2023-03-15T05:30:12;98673.91;;;0.82;100.00
70027;BME280;57506;50.092;15.804;2023-03-15T05:32:39;98677.84;;;0.78;100.00
70027;BME280;57506;50.092;15.804;2023-03-15T05:35:09;98692.06;;;0.87;100.00
70027;BME280;57506;50.092;15.804;2023-03-15T05:37:35;98692.88;;;0.87;100.00
70027;BME280;57506;50.092;15.804;2023-03-15T05:40:01;98692.59;;;0.90;100.00
70027;BME280;57506;50.092;15.804;2023-03-15T05:42:27;98680.59;;;0.86;100.00
70027;BME280;57506;50.092;15.804;2023-03-15T05:44:54;98688.84;;;0.93;100.00
70027;BME280;57506;50.092;15.804;2023-03-15T05:47:20;98695.94;;;0.92;100.00
70027;BME280;57506;50.092;15.804;2023-03-15T05:49:46;98700.56;;;0.90;100.00
70027;BME280;57506;50.092;15.804;2023-03-15T05:52:11;98700.84;;;0.97;100.00
70027;BME280;57506;50.092;15.804;2023-03-15T05:54:37;98720.25;;;0.97;100.00
70027;BME280;57506;50.092;15.804;2023-03-15T05:57:03;98722.72;;;0.99;100.00
70027;BME280;57506;50.092;15.804;2023-03-15T05:59:28;98730.84;;;0.97;100.00
70027;BME280;57506;50.092;15.804;2023-03-15T06:01:54;98739.34;;;1.01;100.00
70027;BME280;57506;50.092;15.804;2023-03-15T06:04:20;98748.81;;;1.03;100.00
70027;BME280;57506;50.092;15.804;2023-03-15T06:06:45;98758.59;;;1.03;100.00
70027;BME280;57506;50.092;15.804;2023-03-15T06:09:11;98767.13;;;1.07;100.00
70027;BME280;57506;50.092;15.804;2023-03-15T06:11:37;98758.47;;;1.04;100.00
70027;BME280;57506;50.092;15.804;2023-03-15T06:14:03;98775.22;;;1.05;100.00
70027;BME280;57506;50.092;15.804;2023-03-15T06:16:28;98781.63;;;1.12;100.00
70027;BME280;57506;50.092;15.804;2023-03-15T06:18:54;98786.09;;;1.12;100.00
70027;BME280;57506;50.092;15.804;2023-03-15T06:21:19;98791.28;;;1.13;100.00
70027;BME280;57506;50.092;15.804;2023-03-15T06:23:45;98811.50;;;1.14;100.00
70027;BME280;57506;50.092;15.804;2023-03-15T06:26:10;98800.31;;;1.20;100.00
70027;BME280;57506;50.092;15.804;2023-03-15T06:28:36;98808.69;;;1.25;100.00
70027;BME280;57506;50.092;15.804;2023-03-15T06:31:09;98817.88;;;1.31;100.00
70027;BME280;57506;50.092;15.804;2023-03-15T06:33:35;98810.59;;;1.33;100.00
70027;BME280;57506;50.092;15.804;2023-03-15T06:36:01;98833.38;;;1.45;100.00
70027;BME280;57506;50.092;15.804;2023-03-15T06:38:27;98844.38;;;1.50;100.00
70027;BME280;57506;50.092;15.804;2023-03-15T06:40:52;98835.72;;;1.48;100.00
70027;BME280;57506;50.092;15.804;2023-03-15T06:43:19;98847.44;;;1.55;100.00
70027;BME280;57506;50.092;15.804;2023-03-15T06:45:45;98858.00;;;1.65;100.00
70027;BME280;57506;50.092;15.804;2023-03-15T06:48:14;98854.50;;;1.64;100.00
70027;BME280;57506;50.092;15.804;2023-03-15T06:50:40;98860.22;;;1.69;100.00
70027;BME280;57506;50.092;15.804;2023-03-15T06:53:05;98873.31;;;1.81;100.00
70027;BME280;57506;50.092;15.804;2023-03-15T06:55:31;98875.25;;;1.88;100.00
70027;BME280;57506;50.092;15.804;2023-03-15T06:57:57;98872.94;;;2.03;100.00
70027;BME280;57506;50.092;15.804;2023-03-15T07:00:23;98866.78;;;2.02;100.00
70027;BME280;57506;50.092;15.804;2023-03-15T07:02:48;98874.22;;;1.99;100.00
70027;BME280;57506;50.092;15.804;2023-03-15T07:05:14;98878.81;;;2.06;100.00
70027;BME280;57506;50.092;15.804;2023-03-15T07:07:39;98884.06;;;2.16;100.00
70027;BME280;57506;50.092;15.804;2023-03-15T07:10:05;98893.00;;;2.25;100.00
70027;BME280;57506;50.092;15.804;2023-03-15T07:12:31;98896.94;;;2.21;100.00
70027;BME280;57506;50.092;15.804;2023-03-15T07:14:57;98892.16;;;2.24;100.00
70027;BME280;57506;50.092;15.804;2023-03-15T07:17:22;98888.69;;;2.41;100.00
70027;BME280;57506;50.092;15.804;2023-03-15T07:19:47;98898.03;;;2.45;100.00
70027;BME280;57506;50.092;15.804;2023-03-15T07:22:13;98895.75;;;2.51;100.00
70027;BME280;57506;50.092;15.804;2023-03-15T07:24:39;98886.41;;;2.46;100.00
70027;BME280;57506;50.092;15.804;2023-03-15T07:27:05;98902.16;;;2.58;100.00
70027;BME280;57506;50.092;15.804;2023-03-15T07:29:30;98897.00;;;2.56;100.00
70027;BME280;57506;50.092;15.804;2023-03-15T07:31:56;98915.75;;;2.55;100.00
70027;BME280;57506;50.092;15.804;2023-03-15T07:34:22;98916.34;;;2.49;100.00
70027;BME280;57506;50.092;15.804;2023-03-15T07:36:47;98897.38;;;2.43;100.00
70027;BME280;57506;50.092;15.804;2023-03-15T07:39:13;98933.31;;;2.65;100.00
70027;BME280;57506;50.092;15.804;2023-03-15T07:41:38;98927.09;;;2.57;100.00
70027;BME280;57506;50.092;15.804;2023-03-15T07:44:04;98923.81;;;2.63;100.00
70027;BME280;57506;50.092;15.804;2023-03-15T07:46:30;98920.28;;;2.72;100.00
70027;BME280;57506;50.092;15.804;2023-03-15T07:48:55;98929.31;;;2.79;100.00
70027;BME280;57506;50.092;15.804;2023-03-15T07:51:21;98929.38;;;2.69;98.83
70027;BME280;57506;50.092;15.804;2023-03-15T07:53:46;98944.56;;;2.77;100.00
70027;BME280;57506;50.092;15.804;2023-03-15T07:56:12;98918.66;;;2.79;100.00
70027;BME280;57506;50.092;15.804;2023-03-15T07:58:37;98933.94;;;3.12;97.11
70027;BME280;57506;50.092;15.804;2023-03-15T08:01:03;98924.56;;;3.26;99.74
70027;BME280;57506;50.092;15.804;2023-03-15T08:03:28;98933.25;;;3.28;96.60
70027;BME280;57506;50.092;15.804;2023-03-15T08:05:54;98948.16;;;3.39;94.07
70027;BME280;57506;50.092;15.804;2023-03-15T08:08:20;98939.28;;;3.12;96.15
70027;BME280;57506;50.092;15.804;2023-03-15T08:10:45;98936.28;;;2.80;95.05
70027;BME280;57506;50.092;15.804;2023-03-15T08:13:12;98934.84;;;2.68;95.23
70027;BME280;57506;50.092;15.804;2023-03-15T08:15:37;98964.88;;;2.78;95.53
70027;BME280;57506;50.092;15.804;2023-03-15T08:18:03;98961.78;;;2.83;95.70
70027;BME280;57506;50.092;15.804;2023-03-15T08:20:30;98955.03;;;2.88;97.26
70027;BME280;57506;50.092;15.804;2023-03-15T08:22:58;98955.94;;;2.97;99.28
70027;BME280;57506;50.092;15.804;2023-03-15T08:25:24;98958.16;;;3.19;98.32
70027;BME280;57506;50.092;15.804;2023-03-15T08:27:50;98960.00;;;3.44;98.31
70027;BME280;57506;50.092;15.804;2023-03-15T08:30:17;98964.50;;;3.44;95.38
70027;BME280;57506;50.092;15.804;2023-03-15T08:32:44;98967.28;;;3.60;96.26
70027;BME280;57506;50.092;15.804;2023-03-15T08:35:11;98942.03;;;3.64;96.31
70027;BME280;57506;50.092;15.804;2023-03-15T08:37:38;98978.19;;;3.93;95.33
70027;BME280;57506;50.092;15.804;2023-03-15T08:40:05;98974.94;;;4.07;96.63
70027;BME280;57506;50.092;15.804;2023-03-15T08:42:35;98958.09;;;4.06;91.15
70027;BME280;57506;50.092;15.804;2023-03-15T08:45:03;98959.84;;;4.15;91.19
70027;BME280;57506;50.092;15.804;2023-03-15T08:47:29;98967.88;;;4.66;93.44
70027;BME280;57506;50.092;15.804;2023-03-15T08:49:55;98957.94;;;4.42;92.10
70027;BME280;57506;50.092;15.804;2023-03-15T08:52:21;98950.38;;;4.21;89.17
70027;BME280;57506;50.092;15.804;2023-03-15T08:54:47;98972.63;;;4.38;89.38
70027;BME280;57506;50.092;15.804;2023-03-15T08:57:14;98972.19;;;4.58;93.34
70027;BME280;57506;50.092;15.804;2023-03-15T08:59:39;98954.59;;;4.40;88.70
70027;BME280;57506;50.092;15.804;2023-03-15T09:02:05;98979.34;;;4.58;92.70
70027;BME280;57506;50.092;15.804;2023-03-15T09:04:31;98982.25;;;4.73;90.47
70027;BME280;57506;50.092;15.804;2023-03-15T09:06:57;98980.72;;;4.62;86.63
70027;BME280;57506;50.092;15.804;2023-03-15T09:09:23;98986.94;;;4.71;88.48
70027;BME280;57506;50.092;15.804;2023-03-15T09:11:48;98980.97;;;4.85;87.02
70027;BME280;57506;50.092;15.804;2023-03-15T09:14:14;98975.09;;;4.81;83.60
70027;BME280;57506;50.092;15.804;2023-03-15T09:16:40;98979.28;;;4.84;82.18
70027;BME280;57506;50.092;15.804;2023-03-15T09:19:05;98979.50;;;4.56;80.00
70027;BME280;57506;50.092;15.804;2023-03-15T09:21:31;98990.25;;;4.73;80.77
70027;BME280;57506;50.092;15.804;2023-03-15T09:23:56;98972.84;;;4.52;80.52
70027;BME280;57506;50.092;15.804;2023-03-15T09:26:22;98983.75;;;4.67;83.47
70027;BME280;57506;50.092;15.804;2023-03-15T09:28:48;98974.78;;;4.84;82.59
70027;BME280;57506;50.092;15.804;2023-03-15T09:31:13;98987.50;;;4.99;83.41
70027;BME280;57506;50.092;15.804;2023-03-15T09:33:39;98959.13;;;4.98;81.52
70027;BME280;57506;50.092;15.804;2023-03-15T09:36:05;98962.16;;;5.03;77.35
70027;BME280;57506;50.092;15.804;2023-03-15T09:38:31;98969.09;;;4.87;83.96
70027;BME280;57506;50.092;15.804;2023-03-15T09:40:59;98962.28;;;4.93;79.63
70027;BME280;57506;50.092;15.804;2023-03-15T09:45:59;98991.69;;;5.09;79.32
70027;BME280;57506;50.092;15.804;2023-03-15T09:54:22;98990.50;;;4.96;83.74
70027;BME280;57506;50.092;15.804;2023-03-15T09:59:36;98993.69;;;5.07;76.25
70027;BME280;57506;50.092;15.804;2023-03-15T10:02:31;98990.06;;;5.33;76.13
70027;BME280;57506;50.092;15.804;2023-03-15T10:05:11;98979.09;;;4.77;77.12
70027;BME280;57506;50.092;15.804;2023-03-15T10:07:40;99005.63;;;4.71;74.32
70027;BME280;57506;50.092;15.804;2023-03-15T10:10:25;98992.38;;;4.53;78.37
70027;BME280;57506;50.092;15.804;2023-03-15T10:18:45;98984.91;;;4.65;73.56
70027;BME280;57506;50.092;15.804;2023-03-15T10:23:52;98978.53;;;5.40;77.99
70027;BME280;57506;50.092;15.804;2023-03-15T10:26:23;98968.84;;;5.23;74.48
70027;BME280;57506;50.092;15.804;2023-03-15T10:28:50;98967.34;;;5.53;77.50
70027;BME280;57506;50.092;15.804;2023-03-15T10:31:20;98980.53;;;5.22;73.85
70027;BME280;57506;50.092;15.804;2023-03-15T10:33:48;98959.00;;;5.40;77.25
70027;BME280;57506;50.092;15.804;2023-03-15T10:36:18;98983.75;;;5.66;74.03
70027;BME280;57506;50.092;15.804;2023-03-15T10:38:44;98974.84;;;5.17;74.85
70027;BME280;57506;50.092;15.804;2023-03-15T10:41:13;98982.03;;;5.41;76.05
70027;BME280;57506;50.092;15.804;2023-03-15T10:43:39;98977.03;;;6.03;80.62
70027;BME280;57506;50.092;15.804;2023-03-15T10:46:22;98989.59;;;5.94;75.69
70027;BME280;57506;50.092;15.804;2023-03-15T10:48:59;98981.03;;;5.42;79.22
70027;BME280;57506;50.092;15.804;2023-03-15T10:51:29;98991.56;;;5.27;76.98
70027;BME280;57506;50.092;15.804;2023-03-15T10:54:05;98991.84;;;5.08;79.96
70027;BME280;57506;50.092;15.804;2023-03-15T10:56:37;98995.31;;;4.84;83.32
70027;BME280;57506;50.092;15.804;2023-03-15T10:59:18;98996.16;;;4.84;80.89
70027;BME280;57506;50.092;15.804;2023-03-15T11:01:46;98989.84;;;5.10;81.66
70027;BME280;57506;50.092;15.804;2023-03-15T11:04:19;98996.72;;;5.37;77.30
70027;BME280;57506;50.092;15.804;2023-03-15T11:09:17;98995.88;;;5.12;71.49
70027;BME280;57506;50.092;15.804;2023-03-15T11:11:59;98991.66;;;4.93;71.46
70027;BME280;57506;50.092;15.804;2023-03-15T11:14:37;98974.72;;;5.35;70.91
70027;BME280;57506;50.092;15.804;2023-03-15T11:17:05;98985.53;;;6.06;70.12
70027;BME280;57506;50.092;15.804;2023-03-15T11:19:35;98987.34;;;6.22;69.39
70027;BME280;57506;50.092;15.804;2023-03-15T11:22:02;98993.59;;;5.98;67.10
70027;BME280;57506;50.092;15.804;2023-03-15T11:24:30;98979.22;;;5.75;65.70
70027;BME280;57506;50.092;15.804;2023-03-15T11:27:01;98992.22;;;5.70;66.42
70027;BME280;57506;50.092;15.804;2023-03-15T11:29:30;98961.81;;;5.38;67.21
70027;BME280;57506;50.092;15.804;2023-03-15T11:31:59;98988.75;;;5.61;69.94
70027;BME280;57506;50.092;15.804;2023-03-15T11:34:39;98986.72;;;6.12;66.19
70027;BME280;57506;50.092;15.804;2023-03-15T11:37:19;98964.66;;;5.85;61.86
70027;BME280;57506;50.092;15.804;2023-03-15T11:40:35;98986.41;;;5.99;65.03
70027;BME280;57506;50.092;15.804;2023-03-15T11:43:06;98974.88;;;5.98;61.69
70027;BME280;57506;50.092;15.804;2023-03-15T11:45:55;98988.53;;;6.66;63.89
70027;BME280;57506;50.092;15.804;2023-03-15T11:50:54;98963.44;;;7.67;65.31
70027;BME280;57506;50.092;15.804;2023-03-15T11:53:22;98946.06;;;7.40;63.14
70027;BME280;57506;50.092;15.804;2023-03-15T11:55:50;98972.34;;;7.45;61.10
70027;BME280;57506;50.092;15.804;2023-03-15T11:58:33;98970.31;;;7.47;62.41
70027;BME280;57506;50.092;15.804;2023-03-15T12:01:09;98975.34;;;6.96;58.84
70027;BME280;57506;50.092;15.804;2023-03-15T12:03:39;98980.41;;;6.83;63.88
70027;BME280;57506;50.092;15.804;2023-03-15T12:08:53;98986.13;;;6.41;62.72
70027;BME280;57506;50.092;15.804;2023-03-15T12:16:25;98966.44;;;6.25;62.69
70027;BME280;57506;50.092;15.804;2023-03-15T12:18:52;98961.72;;;6.36;62.57
70027;BME280;57506;50.092;15.804;2023-03-15T12:21:31;98955.75;;;6.64;63.88
70027;BME280;57506;50.092;15.804;2023-03-15T12:24:04;98960.47;;;6.54;61.75
70027;BME280;57506;50.092;15.804;2023-03-15T12:26:40;98962.81;;;6.57;60.42
70027;BME280;57506;50.092;15.804;2023-03-15T12:29:14;98976.81;;;6.28;59.70
70027;BME280;57506;50.092;15.804;2023-03-15T12:32:03;98951.75;;;6.60;66.13
70027;BME280;57506;50.092;15.804;2023-03-15T12:37:42;98963.91;;;7.02;60.90
70027;BME280;57506;50.092;15.804;2023-03-15T12:50:37;98973.59;;;7.11;61.04
70027;BME280;57506;50.092;15.804;2023-03-15T12:56:27;98971.88;;;6.87;59.42
70027;BME280;57506;50.092;15.804;2023-03-15T12:59:02;98959.72;;;6.77;62.75
70027;BME280;57506;50.092;15.804;2023-03-15T13:01:30;98961.28;;;6.94;66.97
70027;BME280;57506;50.092;15.804;2023-03-15T13:03:58;98975.25;;;7.12;61.88
70027;BME280;57506;50.092;15.804;2023-03-15T13:12:29;98971.56;;;6.82;61.52
70027;BME280;57506;50.092;15.804;2023-03-15T13:15:27;98959.56;;;6.70;61.19
70027;BME280;57506;50.092;15.804;2023-03-15T13:17:56;98980.88;;;6.63;62.55
70027;BME280;57506;50.092;15.804;2023-03-15T13:23:24;98964.63;;;6.65;60.55
70027;BME280;57506;50.092;15.804;2023-03-15T13:31:32;98967.41;;;6.80;63.21
70027;BME280;57506;50.092;15.804;2023-03-15T13:34:24;98979.63;;;7.05;63.87
70027;BME280;57506;50.092;15.804;2023-03-15T13:36:55;98982.00;;;7.00;62.40
70027;BME280;57506;50.092;15.804;2023-03-15T13:39:35;98975.34;;;6.96;60.89
70027;BME280;57506;50.092;15.804;2023-03-15T13:42:27;98963.25;;;6.69;62.95
70027;BME280;57506;50.092;15.804;2023-03-15T13:47:32;98984.00;;;6.67;62.92
70027;BME280;57506;50.092;15.804;2023-03-15T13:50:01;98979.56;;;6.51;63.91
70027;BME280;57506;50.092;15.804;2023-03-15T13:52:28;98954.69;;;6.35;66.39
70027;BME280;57506;50.092;15.804;2023-03-15T13:54:54;98977.44;;;6.39;65.07
70027;BME280;57506;50.092;15.804;2023-03-15T13:57:21;98986.28;;;6.47;63.80
70027;BME280;57506;50.092;15.804;2023-03-15T14:00:00;98989.75;;;6.56;65.09
70027;BME280;57506;50.092;15.804;2023-03-15T14:05:06;98971.94;;;6.32;64.72
70027;BME280;57506;50.092;15.804;2023-03-15T14:07:42;98997.66;;;6.49;66.54
70027;BME280;57506;50.092;15.804;2023-03-15T14:10:33;99000.69;;;6.46;65.64
70027;BME280;57506;50.092;15.804;2023-03-15T14:15:47;98991.94;;;6.52;67.18
70027;BME280;57506;50.092;15.804;2023-03-15T14:18:21;98983.94;;;6.44;65.84
70027;BME280;57506;50.092;15.804;2023-03-15T14:23:22;98991.00;;;6.37;65.49
70027;BME280;57506;50.092;15.804;2023-03-15T14:26:15;99002.34;;;6.39;66.70
70027;BME280;57506;50.092;15.804;2023-03-15T14:31:27;98980.00;;;6.24;67.08